الصفحة الرئيسية
METAR-TAF:

METAR-TAF

مطار :

مطار صلالة

صلالة, سلطنة عمان

دائرة عرض: 17-02N, خط طول: 054-05E, ارتفاع: 20 متر

مراقبة الطقس الحالي

تاريخ ووقت الإصدار 34 دقيقة قبل الساعة 00:50UTC
ريح 4 عقدة من الغرب/الجنوب الغربي
درجة الحرارة 27°درجة مئوية
الرطوبة 94%
ضغط 1005 hPa
الرؤية 10 كم أو أكثر
غيوم مفككة على ارتفاع 2500 قدم

METAR: OOSA 190050Z 24004KT 9999 BKN025 27/26 Q1005 NOSIG

زمن: 05:24 (01:24 UTC)

توقعات

تاريخ ووقت الإصدار 13ساعات و 44 دقيقة قبل الساعة 11:40UTC
التوقعات صالحة من18 الساعة 12 UTC إلى 19 الساعة 18 UTC
ريح 10 عقدة من الجنوب
الرؤية: 9000 متر
غيوم متفرقة على ارتفاع 1800 قدم
غيوم مفككة على ارتفاع 3000 قدم
أصبح
من 18 الساعة 15 UTC إلى 18 الساعة 17 UTC
ريح 3 عقدةمن اتجاهات متغيرة
أصبح
من 19 الساعة 06 UTC إلى 19 الساعة 08 UTC
ريح 10 عقدة من الجنوب
أصبح
من 19 الساعة 15 UTC إلى 19 الساعة 17 UTC
ريح 3 عقدةمن اتجاهات متغيرة

TAF: OOSA 181140Z 1812/1918 19010KT 9000 SCT018 BKN030 BECMG 1815/1817 VRB03KT BECMG 1906/1908 19010KT BECMG 1915/1917 VRB03KT

أرصاد الطقس والتوقعات من أكثر من 4000 مطار (تقارير الطقس للمطار METAR والتنبؤ بالطقس بالمطارTAF).

المحطات المتاحة هي النقط الصفراء والحمراء على الخريطة.

حرك المؤشر فوق النقطة لمعرفة اسم المحطة.

ثم انقر لمعرفة أرصاد وتوقعات الطقس.

لتغيير الخارطة: اضغط على الأزرار الخضراء مع رمز الصليب الأسود للتكبير. على الزر الأخضر مع شرطة للتصغير، أو على الأسهم الخضراء للخرائط المجاورة.


METAR-TAF: